< Cyclone 198612 1986 Season Cyclone 198614 >
Cyclone 198613 (MANU)
General InformationTrack Information on Google MapsDetailed Wind InformationList of All Images || ResourceGoogle EarthGE AnimationAtom FeedGeoJSON
Detalied Best Track (Time Zone = UTC)
Year Month Day Hour Lat. Long. Pressure (hPa) Wind (kt) Class Image Chart
1986 4 21 00 -7.9 156.0 1005 8 2 Image --
1986 4 21 06 -8.1 156.0 1003 16 2 Image --
1986 4 21 12 -8.2 156.0 1004 12 2 Image --
1986 4 21 18 -8.4 156.0 1004 12 2 Image --
1986 4 22 00 -8.7 156.0 1005 12 2 Image --
1986 4 22 06 -9.1 155.8 1003 14 2 Image --
1986 4 22 12 -9.5 155.4 1004 12 2 Image --
1986 4 22 18 -9.9 155.0 1003 12 2 Image --
1986 4 23 00 -10.3 154.5 1004 14 2 Image --
1986 4 23 06 -10.9 154.0 1000 21 2 Image --
1986 4 23 12 -11.6 153.3 995 35 3 Image --
1986 4 23 18 -12.1 152.2 991 35 3 Image --
1986 4 24 00 -12.7 151.0 985 43 3 Image --
1986 4 24 06 -13.1 150.1 976 56 4 Image --
1986 4 24 12 -13.3 149.5 970 62 4 Image --
1986 4 24 18 -13.6 148.9 974 60 4 Image --
1986 4 25 00 -13.9 148.3 980 49 4 Image --
1986 4 25 06 -14.2 147.7 987 37 3 Image --
1986 4 25 12 -14.5 147.1 991 37 3 Image --
1986 4 25 18 -14.8 146.6 994 35 3 Image --
1986 4 26 00 -15.1 146.0 996 35 3 Image --
1986 4 26 06 -15.3 145.5 998 31 2 Image --
1986 4 26 12 -15.5 145.2 1002 27 2 Image --
1986 4 26 18 -15.7 144.9 1005 27 2 Image --
1986 4 27 00 -15.9 144.6 1007 12 2 Image --
< Cyclone 198612 1986 Season Cyclone 198614 >

Help